createdAt,value
2022-12-18T00:00:09.304Z,65.53
2022-12-18T00:02:37.839Z,68.33
2022-12-18T00:05:07.758Z,66.50
2022-12-18T00:07:35.893Z,72.30
2022-12-18T00:10:04.310Z,68.80
2022-12-18T00:12:32.534Z,71.47
2022-12-18T00:15:01.058Z,66.27
2022-12-18T00:17:30.711Z,73.10
2022-12-18T00:19:58.822Z,77.03
2022-12-18T00:22:26.597Z,75.53
2022-12-18T00:24:54.421Z,70.83
2022-12-18T00:27:22.745Z,66.27
2022-12-18T00:29:51.069Z,65.27
2022-12-18T00:32:19.059Z,66.47
2022-12-18T00:34:48.562Z,62.77
2022-12-18T00:37:20.187Z,70.93
2022-12-18T00:39:51.210Z,67.93
2022-12-18T00:42:36.652Z,75.73
2022-12-18T00:45:09.181Z,68.00
2022-12-18T00:47:40.319Z,65.13
2022-12-18T00:50:11.778Z,65.03
2022-12-18T00:52:43.616Z,68.50
2022-12-18T00:55:12.970Z,69.57
2022-12-18T00:57:42.974Z,69.53
2022-12-18T01:00:15.040Z,72.63
2022-12-18T01:02:43.672Z,74.50
2022-12-18T01:05:14.880Z,65.90
2022-12-18T01:07:43.208Z,60.93
2022-12-18T01:10:13.780Z,64.30
2022-12-18T01:12:41.910Z,66.77
2022-12-18T01:15:11.902Z,68.20
2022-12-18T01:17:39.702Z,70.00
2022-12-18T01:20:11.146Z,60.87
2022-12-18T01:22:40.674Z,57.73
2022-12-18T01:25:09.981Z,61.97
2022-12-18T01:27:38.212Z,64.23
2022-12-18T01:30:07.199Z,72.47
2022-12-18T01:32:35.416Z,71.90
2022-12-18T01:35:04.295Z,70.27
2022-12-18T01:37:33.053Z,79.83
2022-12-18T01:40:02.708Z,98.87
2022-12-18T01:42:30.538Z,86.73
2022-12-18T01:45:05.790Z,84.07
2022-12-18T01:47:38.784Z,93.73
2022-12-18T01:50:11.169Z,91.80
2022-12-18T01:52:43.939Z,88.60
2022-12-18T01:55:15.393Z,96.33
2022-12-18T01:57:43.924Z,88.63
2022-12-18T02:00:15.015Z,95.50
2022-12-18T02:02:45.160Z,91.67
2022-12-18T02:05:15.470Z,81.83
2022-12-18T02:07:51.749Z,81.20
2022-12-18T02:10:26.850Z,87.93
2022-12-18T02:13:00.798Z,91.37
2022-12-18T02:15:36.613Z,96.03
2022-12-18T02:18:10.875Z,88.73
2022-12-18T02:20:43.948Z,78.13
2022-12-18T02:23:24.179Z,88.73
2022-12-18T02:26:13.300Z,88.43
2022-12-18T02:28:46.636Z,82.97
2022-12-18T02:31:25.985Z,87.73
2022-12-18T02:34:00.772Z,76.33
2022-12-18T02:36:30.814Z,90.00
2022-12-18T02:39:01.163Z,73.23
2022-12-18T02:41:32.594Z,75.23
2022-12-18T02:44:02.615Z,71.17
2022-12-18T02:46:37.279Z,77.63
2022-12-18T02:49:14.340Z,74.37
2022-12-18T02:51:53.487Z,77.47
2022-12-18T02:54:31.042Z,80.80
2022-12-18T02:57:08.500Z,83.87
2022-12-18T02:59:43.274Z,64.80
2022-12-18T03:02:21.973Z,87.97
2022-12-18T03:04:55.713Z,80.73
2022-12-18T03:07:35.679Z,82.53
2022-12-18T03:10:04.004Z,82.97
2022-12-18T03:12:40.212Z,86.90
2022-12-18T03:15:17.597Z,75.90
2022-12-18T03:17:52.171Z,71.80
2022-12-18T03:20:23.955Z,63.77
2022-12-18T03:22:55.465Z,68.57
2022-12-18T03:25:24.750Z,62.40
2022-12-18T03:27:58.382Z,70.50
2022-12-18T03:30:28.627Z,78.50
2022-12-18T03:33:03.046Z,67.10
2022-12-18T03:35:34.306Z,57.83
2022-12-18T03:38:02.195Z,65.57
2022-12-18T03:40:38.163Z,64.27
2022-12-18T03:43:12.759Z,58.93
2022-12-18T03:45:45.522Z,66.97
2022-12-18T03:48:20.218Z,70.60
2022-12-18T03:50:55.618Z,71.53
2022-12-18T03:53:30.988Z,70.23
2022-12-18T03:56:01.779Z,64.33
2022-12-18T03:58:33.814Z,61.90
2022-12-18T04:01:06.568Z,55.77
2022-12-18T04:03:36.486Z,64.13
2022-12-18T04:06:05.556Z,69.53
2022-12-18T04:08:35.855Z,69.73
2022-12-18T04:11:04.683Z,64.57
2022-12-18T04:13:38.256Z,62.93
2022-12-18T04:16:07.624Z,69.90
2022-12-18T04:18:36.770Z,59.97
2022-12-18T04:21:04.896Z,64.50
2022-12-18T04:23:32.973Z,70.87
2022-12-18T04:26:00.918Z,66.37
2022-12-18T04:28:29.096Z,64.73
2022-12-18T04:30:58.319Z,70.00
2022-12-18T04:33:27.248Z,59.73
2022-12-18T04:35:55.095Z,61.03
2022-12-18T04:38:23.283Z,66.33
2022-12-18T04:40:51.467Z,68.63
2022-12-18T04:43:20.119Z,64.10
2022-12-18T04:45:48.050Z,59.60
2022-12-18T04:48:17.291Z,64.57
2022-12-18T04:50:45.192Z,48.53
2022-12-18T04:53:13.255Z,66.07
2022-12-18T04:55:41.035Z,69.37
2022-12-18T04:58:09.451Z,66.33
2022-12-18T05:00:37.471Z,65.37
2022-12-18T05:03:05.359Z,63.10
2022-12-18T05:05:36.888Z,58.50
2022-12-18T05:08:04.983Z,65.73
2022-12-18T05:10:38.037Z,64.67
2022-12-18T05:13:06.380Z,60.90
2022-12-18T05:15:35.322Z,65.00
2022-12-18T05:18:04.664Z,66.63
2022-12-18T05:20:34.964Z,63.77
2022-12-18T05:23:02.999Z,71.20
2022-12-18T05:25:30.768Z,64.23
2022-12-18T05:27:59.101Z,64.23
2022-12-18T05:30:28.517Z,69.20
2022-12-18T05:32:59.071Z,69.33
2022-12-18T05:35:27.280Z,63.93
2022-12-18T05:37:56.790Z,68.10
2022-12-18T05:40:24.963Z,63.33
2022-12-18T05:42:53.059Z,68.60
2022-12-18T05:45:21.319Z,65.23
2022-12-18T05:47:49.534Z,74.53
2022-12-18T05:50:17.787Z,71.03
2022-12-18T05:52:45.893Z,61.43
2022-12-18T05:55:15.441Z,68.70
2022-12-18T05:57:43.256Z,65.43
2022-12-18T06:00:13.046Z,67.77
2022-12-18T06:02:41.004Z,61.67
2022-12-18T06:05:10.038Z,71.33
2022-12-18T06:07:37.782Z,64.30
2022-12-18T06:10:06.608Z,70.50
2022-12-18T06:12:35.789Z,76.13
2022-12-18T06:15:04.032Z,68.97
2022-12-18T06:17:34.962Z,68.53
2022-12-18T06:20:03.574Z,70.17
2022-12-18T06:22:33.606Z,60.37
2022-12-18T06:25:01.396Z,61.00
2022-12-18T06:27:29.387Z,65.37
2022-12-18T06:29:58.842Z,61.20
2022-12-18T06:32:27.020Z,68.73
2022-12-18T06:34:56.386Z,64.67
2022-12-18T06:37:27.030Z,71.50
2022-12-18T06:39:55.403Z,71.37
2022-12-18T06:42:26.200Z,70.37
2022-12-18T06:44:54.694Z,66.67
2022-12-18T06:47:23.879Z,67.10
2022-12-18T06:49:51.724Z,68.30
2022-12-18T06:52:21.773Z,69.60
2022-12-18T06:54:49.863Z,69.40
2022-12-18T06:57:17.662Z,76.43
2022-12-18T06:59:46.139Z,72.37
2022-12-18T07:02:15.262Z,73.83
2022-12-18T07:04:44.844Z,70.73
2022-12-18T07:07:13.143Z,68.07
2022-12-18T07:09:41.169Z,71.47
2022-12-18T07:12:09.054Z,74.37
2022-12-18T07:14:37.315Z,76.13
2022-12-18T07:17:05.827Z,79.37
2022-12-18T07:19:34.593Z,85.57
2022-12-18T07:22:04.355Z,77.00
2022-12-18T07:24:32.828Z,75.60
2022-12-18T07:27:00.949Z,79.07
2022-12-18T07:29:29.528Z,60.87
2022-12-18T07:31:57.358Z,76.03
2022-12-18T07:34:25.469Z,70.70
2022-12-18T07:36:53.529Z,65.77
2022-12-18T07:39:22.717Z,77.20
2022-12-18T07:42:11.110Z,70.57
2022-12-18T07:44:39.902Z,75.33
2022-12-18T07:47:11.965Z,80.47
2022-12-18T07:49:40.877Z,68.40
2022-12-18T07:52:09.455Z,72.07
2022-12-18T07:54:38.799Z,76.50
2022-12-18T07:57:21.278Z,66.87
2022-12-18T07:59:58.254Z,79.53
2022-12-18T08:02:26.604Z,61.53
2022-12-18T08:04:55.011Z,78.97
2022-12-18T08:07:22.798Z,70.53
2022-12-18T08:09:52.487Z,66.67
2022-12-18T08:12:20.421Z,71.33
2022-12-18T08:14:48.201Z,74.43
2022-12-18T08:17:16.556Z,68.63
2022-12-18T08:19:44.575Z,84.23
2022-12-18T08:22:12.476Z,81.47
2022-12-18T08:24:40.854Z,79.77
2022-12-18T08:29:58.592Z,73.53
2022-12-18T08:32:27.637Z,84.17
2022-12-18T08:34:56.162Z,82.73
2022-12-18T08:37:24.622Z,84.27
2022-12-18T08:39:52.620Z,76.10
2022-12-18T08:42:39.613Z,79.70
2022-12-18T08:45:08.496Z,84.70
2022-12-18T08:47:36.767Z,76.40
2022-12-18T08:50:07.140Z,81.63
2022-12-18T08:52:35.436Z,86.93
2022-12-18T08:55:03.311Z,90.07
2022-12-18T08:57:33.039Z,82.13
2022-12-18T09:00:01.203Z,80.67
2022-12-18T09:02:29.633Z,93.97
2022-12-18T09:04:58.379Z,83.27
2022-12-18T09:07:26.249Z,75.47
2022-12-18T09:09:54.473Z,69.13
2022-12-18T09:12:22.312Z,89.33
2022-12-18T09:14:51.531Z,82.67
2022-12-18T09:17:19.809Z,80.33
2022-12-18T09:19:47.650Z,73.43
2022-12-18T09:22:15.698Z,74.53
2022-12-18T09:24:44.162Z,76.33
2022-12-18T09:27:12.205Z,77.57
2022-12-18T09:29:40.339Z,75.93
2022-12-18T09:32:10.159Z,86.10
2022-12-18T09:34:37.955Z,83.63
2022-12-18T09:37:06.290Z,96.80
2022-12-18T09:39:34.200Z,78.97
2022-12-18T09:42:02.102Z,72.47
2022-12-18T09:44:41.455Z,78.27
2022-12-18T09:47:18.268Z,96.30
2022-12-18T09:49:48.970Z,80.03
2022-12-18T09:52:22.492Z,84.77
2022-12-18T09:54:55.223Z,79.23
2022-12-18T09:57:25.482Z,72.57
2022-12-18T09:59:57.090Z,84.67
2022-12-18T10:02:28.626Z,81.40
2022-12-18T10:05:08.305Z,69.50
2022-12-18T10:07:49.708Z,73.40
2022-12-18T10:10:29.836Z,75.27
2022-12-18T10:13:08.933Z,65.77
2022-12-18T10:15:46.879Z,67.00
2022-12-18T10:18:33.313Z,75.30
2022-12-18T10:21:09.679Z,75.27
2022-12-18T10:23:48.403Z,79.93
2022-12-18T10:26:17.892Z,69.43
2022-12-18T10:28:47.191Z,73.67
2022-12-18T10:31:18.261Z,81.77
2022-12-18T10:33:47.841Z,68.50
2022-12-18T10:36:16.982Z,70.93
2022-12-18T10:38:45.898Z,65.83
2022-12-18T10:41:29.534Z,73.57
2022-12-18T10:44:21.654Z,63.90
2022-12-18T10:46:52.648Z,62.97
2022-12-18T10:49:26.777Z,68.53
2022-12-18T10:52:09.367Z,74.13
2022-12-18T10:54:38.954Z,67.43
2022-12-18T10:57:18.136Z,68.83
2022-12-18T10:59:53.842Z,81.77
2022-12-18T11:02:30.717Z,80.53
2022-12-18T11:05:00.752Z,71.27
2022-12-18T11:07:50.347Z,86.00
2022-12-18T11:10:21.455Z,74.33
2022-12-18T11:12:49.501Z,69.00
2022-12-18T11:15:24.204Z,73.03
2022-12-18T11:17:54.978Z,66.20
2022-12-18T11:20:33.197Z,68.40
2022-12-18T11:23:02.943Z,67.80
2022-12-18T11:25:34.421Z,65.40
2022-12-18T11:28:06.442Z,62.37
2022-12-18T11:30:35.906Z,77.53
2022-12-18T11:33:08.156Z,67.23
2022-12-18T11:36:00.359Z,70.00
2022-12-18T11:38:31.361Z,65.30
2022-12-18T11:41:04.236Z,80.67
2022-12-18T11:43:36.513Z,73.53
2022-12-18T11:46:08.103Z,85.20
2022-12-18T11:48:45.224Z,71.37
2022-12-18T11:51:26.213Z,65.65
2022-12-18T11:53:56.419Z,69.10
2022-12-18T11:56:34.557Z,76.88
2022-12-18T11:59:16.339Z,71.97
2022-12-18T12:01:52.114Z,73.83
2022-12-18T12:04:44.657Z,72.25
2022-12-18T12:07:26.207Z,70.70
2022-12-18T12:10:06.870Z,60.73
2022-12-18T12:12:50.332Z,72.50
2022-12-18T12:15:31.607Z,81.97
2022-12-18T12:18:11.129Z,71.40
2022-12-18T12:20:50.096Z,74.63
2022-12-18T12:23:28.766Z,77.67
2022-12-18T12:26:04.436Z,77.25
2022-12-18T12:28:53.162Z,76.00
2022-12-18T12:31:31.646Z,79.17
2022-12-18T12:34:10.090Z,70.80
2022-12-18T12:36:51.407Z,69.93
2022-12-18T12:39:25.621Z,76.27
2022-12-18T12:42:15.186Z,73.32
2022-12-18T12:44:57.166Z,69.37
2022-12-18T12:47:31.216Z,80.17
2022-12-18T12:50:01.560Z,66.53
2022-12-18T12:52:37.286Z,72.50
2022-12-18T12:55:15.665Z,69.77
2022-12-18T12:57:51.356Z,65.30
2022-12-18T13:00:21.405Z,80.28
2022-12-18T13:03:01.151Z,70.47
2022-12-18T13:05:36.184Z,74.27
2022-12-18T13:08:07.626Z,76.53
2022-12-18T13:10:38.813Z,70.40
2022-12-18T13:16:07.125Z,65.23
2022-12-18T13:18:36.026Z,73.95
2022-12-18T13:21:11.517Z,72.78
2022-12-18T13:23:42.890Z,72.63
2022-12-18T13:26:34.366Z,74.22
2022-12-18T13:29:05.174Z,73.05
2022-12-18T13:32:10.860Z,64.70
2022-12-18T13:34:39.284Z,70.37
2022-12-18T13:37:46.138Z,71.00
2022-12-18T13:40:59.892Z,71.27
2022-12-18T13:43:42.570Z,58.90
2022-12-18T13:46:31.726Z,68.40
2022-12-18T13:49:04.915Z,70.97
2022-12-18T13:51:36.007Z,69.18
2022-12-18T13:54:17.303Z,71.57
2022-12-18T13:56:47.647Z,74.13
2022-12-18T13:59:23.067Z,75.70
2022-12-18T14:01:56.015Z,70.87
2022-12-18T14:04:29.069Z,74.63
2022-12-18T14:07:04.052Z,68.13
2022-12-18T14:09:37.807Z,69.40
2022-12-18T14:12:25.822Z,69.40
2022-12-18T14:14:55.582Z,62.37
2022-12-18T14:17:25.122Z,66.50
2022-12-18T14:19:55.545Z,68.57
2022-12-18T14:22:28.817Z,65.77
2022-12-18T14:25:17.672Z,59.57
2022-12-18T14:27:47.928Z,64.77
2022-12-18T14:30:42.561Z,61.53
2022-12-18T14:33:12.808Z,66.40
2022-12-18T14:35:43.530Z,68.23
2022-12-18T14:38:24.618Z,63.90
2022-12-18T14:40:58.780Z,70.27
2022-12-18T14:43:26.853Z,61.83
2022-12-18T14:45:57.373Z,64.87
2022-12-18T14:48:37.534Z,59.83
2022-12-18T14:51:07.816Z,61.97
2022-12-18T14:53:40.975Z,65.00
2022-12-18T14:56:18.821Z,61.03
2022-12-18T14:58:49.448Z,73.73
2022-12-18T15:01:25.176Z,64.10
2022-12-18T15:03:54.839Z,67.33
2022-12-18T15:06:34.940Z,60.53
2022-12-18T15:09:07.945Z,61.60
2022-12-18T15:11:45.674Z,67.90
2022-12-18T15:14:34.560Z,60.07
2022-12-18T15:17:07.139Z,65.53
2022-12-18T15:19:40.837Z,61.17
2022-12-18T15:22:22.500Z,70.70
2022-12-18T15:24:50.922Z,61.40
2022-12-18T15:27:29.691Z,62.67
2022-12-18T15:30:24.579Z,62.03
2022-12-18T15:32:55.576Z,60.90
2022-12-18T15:35:25.853Z,66.47
2022-12-18T15:37:54.580Z,63.17
2022-12-18T15:40:25.077Z,62.93
2022-12-18T15:43:14.264Z,64.80
2022-12-18T15:45:42.120Z,71.10
2022-12-18T15:48:22.561Z,66.23
2022-12-18T15:50:54.696Z,62.43
2022-12-18T15:53:23.213Z,63.00
2022-12-18T15:56:08.757Z,69.47
2022-12-18T15:58:37.136Z,61.73
2022-12-18T16:01:05.250Z,71.67
2022-12-18T16:03:34.621Z,72.67
2022-12-18T16:06:04.699Z,69.90
2022-12-18T16:08:32.761Z,68.57
2022-12-18T16:11:02.173Z,66.50
2022-12-18T16:13:30.499Z,72.87
2022-12-18T16:15:59.022Z,68.03
2022-12-18T16:18:28.004Z,68.73
2022-12-18T16:20:57.637Z,64.67
2022-12-18T16:23:25.537Z,64.50
2022-12-18T16:25:53.695Z,61.70
2022-12-18T16:28:22.471Z,83.10
2022-12-18T16:30:50.320Z,68.70
2022-12-18T16:33:18.303Z,64.67
2022-12-18T16:35:54.271Z,71.47
2022-12-18T16:38:23.554Z,60.93
2022-12-18T16:41:09.500Z,63.50
2022-12-18T16:43:37.688Z,71.83
2022-12-18T16:46:05.678Z,65.77
2022-12-18T16:48:33.777Z,64.87
2022-12-18T16:51:05.308Z,64.37
2022-12-18T16:53:36.092Z,62.87
2022-12-18T16:56:04.629Z,66.63
2022-12-18T16:58:34.785Z,70.50
2022-12-18T17:01:03.059Z,61.50
2022-12-18T17:03:31.376Z,56.33
2022-12-18T17:06:04.760Z,59.87
2022-12-18T17:08:32.758Z,61.23
2022-12-18T17:11:08.367Z,65.90
2022-12-18T17:13:37.854Z,77.87
2022-12-18T17:16:06.983Z,81.53
2022-12-18T17:18:36.232Z,73.43
2022-12-18T17:21:06.060Z,77.03
2022-12-18T17:23:33.878Z,89.43
2022-12-18T17:26:03.130Z,96.63
2022-12-18T17:28:32.684Z,77.77
2022-12-18T17:31:00.725Z,84.00
2022-12-18T17:33:29.320Z,82.87
2022-12-18T17:36:00.445Z,82.67
2022-12-18T17:38:28.459Z,83.97
2022-12-18T17:40:56.922Z,67.10
2022-12-18T17:43:24.759Z,70.80
2022-12-18T17:45:54.150Z,72.63
2022-12-18T17:48:23.924Z,79.97
2022-12-18T17:50:52.474Z,84.37
2022-12-18T17:53:21.815Z,80.07
2022-12-18T17:55:56.715Z,75.90
2022-12-18T17:58:24.749Z,74.47
2022-12-18T18:00:54.056Z,73.67
2022-12-18T18:03:23.063Z,86.37
2022-12-18T18:05:56.050Z,87.87
2022-12-18T18:08:24.368Z,73.20
2022-12-18T18:10:52.400Z,62.73
2022-12-18T18:13:46.430Z,75.73
2022-12-18T18:16:16.180Z,74.33
2022-12-18T18:18:44.490Z,71.40
2022-12-18T18:21:12.429Z,78.37
2022-12-18T18:23:43.060Z,75.57
2022-12-18T18:26:13.260Z,62.50
2022-12-18T18:28:41.344Z,66.80
2022-12-18T18:31:10.848Z,75.50
2022-12-18T18:33:40.806Z,73.77
2022-12-18T18:36:12.569Z,70.00
2022-12-18T18:38:46.753Z,66.13
2022-12-18T18:41:16.692Z,70.97
2022-12-18T18:43:45.145Z,74.33
2022-12-18T18:46:14.919Z,72.50
2022-12-18T18:48:44.154Z,87.07
2022-12-18T18:51:19.563Z,77.47
2022-12-18T18:53:51.473Z,60.47
2022-12-18T18:59:11.332Z,80.73
2022-12-18T19:01:39.979Z,68.93
2022-12-18T19:04:09.575Z,86.00
2022-12-18T19:06:37.831Z,74.07
2022-12-18T19:09:07.402Z,71.60
2022-12-18T19:11:52.770Z,83.53
2022-12-18T19:14:21.608Z,70.43
2022-12-18T19:16:49.427Z,75.93
2022-12-18T19:19:23.146Z,74.00
2022-12-18T19:21:51.590Z,62.63
2022-12-18T19:24:21.420Z,59.30
2022-12-18T19:26:51.937Z,61.57
2022-12-18T19:29:20.275Z,63.43
2022-12-18T19:31:48.134Z,64.97
2022-12-18T19:34:18.355Z,63.47
2022-12-18T19:36:47.215Z,61.20
2022-12-18T19:39:19.430Z,62.57
2022-12-18T19:41:48.408Z,69.00
2022-12-18T19:44:18.408Z,67.73
2022-12-18T19:46:47.486Z,68.20
2022-12-18T19:49:16.750Z,77.80
2022-12-18T19:51:47.317Z,64.43
2022-12-18T19:54:18.323Z,81.80
2022-12-18T19:56:47.271Z,70.27
2022-12-18T19:59:15.455Z,66.27
2022-12-18T20:01:44.742Z,82.20
2022-12-18T20:04:13.005Z,69.13
2022-12-18T20:06:51.364Z,72.33
2022-12-18T20:09:20.000Z,76.03
2022-12-18T20:11:49.614Z,62.10
2022-12-18T20:14:19.666Z,60.40
2022-12-18T20:16:52.600Z,58.13
2022-12-18T20:19:22.185Z,59.43
2022-12-18T20:21:52.370Z,63.03
2022-12-18T20:24:22.023Z,63.97
2022-12-18T20:26:50.544Z,65.47
2022-12-18T20:29:19.135Z,63.57
2022-12-18T20:31:47.044Z,60.13
2022-12-18T20:34:14.887Z,58.70
2022-12-18T20:36:44.364Z,62.47
2022-12-18T20:39:14.396Z,66.90
2022-12-18T20:41:44.223Z,68.57
2022-12-18T20:44:22.455Z,53.60
2022-12-18T20:46:52.714Z,58.97
2022-12-18T20:49:21.388Z,68.27
2022-12-18T20:51:51.947Z,66.07
2022-12-18T20:54:26.290Z,63.47
2022-12-18T20:56:54.361Z,59.67
2022-12-18T20:59:23.361Z,60.33
2022-12-18T21:01:53.532Z,59.23
2022-12-18T21:04:22.825Z,55.43
2022-12-18T21:07:00.501Z,63.53
2022-12-18T21:09:38.188Z,56.23
2022-12-18T21:12:25.854Z,63.57
2022-12-18T21:14:54.308Z,54.87
2022-12-18T21:17:22.198Z,66.07
2022-12-18T21:19:50.090Z,65.33
2022-12-18T21:22:18.742Z,57.37
2022-12-18T21:24:50.656Z,65.60
2022-12-18T21:27:18.889Z,55.60
2022-12-18T21:29:47.474Z,67.43
2022-12-18T21:32:15.516Z,62.37
2022-12-18T21:34:47.988Z,61.10
2022-12-18T21:37:16.518Z,58.03
2022-12-18T21:39:44.921Z,57.57
2022-12-18T21:42:31.623Z,62.57
2022-12-18T21:45:00.255Z,61.63
2022-12-18T21:47:28.287Z,59.60
2022-12-18T21:49:56.055Z,64.13
2022-12-18T21:52:31.582Z,78.63
2022-12-18T21:55:06.243Z,60.10
2022-12-18T21:57:38.448Z,62.37
2022-12-18T22:00:07.827Z,65.80
2022-12-18T22:02:36.057Z,65.53
2022-12-18T22:05:06.703Z,69.23
2022-12-18T22:07:35.714Z,65.37
2022-12-18T22:10:03.610Z,66.40
2022-12-18T22:12:44.550Z,64.30
2022-12-18T22:15:18.313Z,66.87
2022-12-18T22:17:55.210Z,70.00
2022-12-18T22:20:30.018Z,69.90
2022-12-18T22:22:58.258Z,65.23
2022-12-18T22:25:26.249Z,75.73
2022-12-18T22:28:08.356Z,63.67
2022-12-18T22:30:37.875Z,62.70
2022-12-18T22:33:06.143Z,67.83
2022-12-18T22:35:34.727Z,63.07
2022-12-18T22:38:02.835Z,53.53
2022-12-18T22:40:30.890Z,67.17
2022-12-18T22:42:59.171Z,56.33
2022-12-18T22:45:27.918Z,62.73
2022-12-18T22:47:57.227Z,64.30
2022-12-18T22:50:25.344Z,63.97
2022-12-18T22:52:53.511Z,68.10
2022-12-18T22:55:21.308Z,68.30
2022-12-18T22:57:50.972Z,63.90
2022-12-18T23:00:24.189Z,60.73
2022-12-18T23:02:59.958Z,63.80
2022-12-18T23:05:32.259Z,62.33
2022-12-18T23:08:00.819Z,63.40
2022-12-18T23:10:29.193Z,69.10
2022-12-18T23:12:58.322Z,65.27
2022-12-18T23:15:28.342Z,64.20
2022-12-18T23:17:57.842Z,64.77
2022-12-18T23:20:26.675Z,66.20
2022-12-18T23:22:56.167Z,63.13
2022-12-18T23:25:25.030Z,61.97
2022-12-18T23:27:53.131Z,63.03
2022-12-18T23:30:21.166Z,59.80
2022-12-18T23:32:49.067Z,60.90
2022-12-18T23:35:17.377Z,65.23
2022-12-18T23:38:01.204Z,61.27
2022-12-18T23:40:31.568Z,67.83
2022-12-18T23:43:00.590Z,63.87
2022-12-18T23:45:28.478Z,62.47
2022-12-18T23:47:57.013Z,59.20
2022-12-18T23:50:28.846Z,56.37
2022-12-18T23:53:02.101Z,68.53
2022-12-18T23:55:38.545Z,65.23
2022-12-18T23:58:06.863Z,61.07
